createdAt,value
2023-04-30T00:00:31.812Z,99421.87
2023-04-30T00:02:59.548Z,99423.38
2023-04-30T00:05:27.026Z,99417.59
2023-04-30T00:07:54.421Z,99417.97
2023-04-30T00:10:22.078Z,99420.19
2023-04-30T00:12:49.682Z,99417.28
2023-04-30T00:15:17.139Z,99407.50
2023-04-30T00:17:44.808Z,99419.66
2023-04-30T00:20:12.982Z,99422.03
2023-04-30T00:22:40.420Z,99415.06
2023-04-30T00:25:09.328Z,99421.81
2023-04-30T00:27:37.878Z,99423.34
2023-04-30T00:30:07.456Z,99419.63
2023-04-30T00:32:36.108Z,99420.97
2023-04-30T00:35:03.556Z,99421.13
2023-04-30T00:37:31.254Z,99420.41
2023-04-30T00:39:58.923Z,99421.41
2023-04-30T00:42:26.369Z,99417.88
2023-04-30T00:44:53.777Z,99418.56
2023-04-30T00:47:21.641Z,99420.78
2023-04-30T00:49:49.209Z,99415.19
2023-04-30T00:52:16.786Z,99411.50
2023-04-30T00:54:44.543Z,99412.28
2023-04-30T00:57:13.873Z,99414.84
2023-04-30T00:59:41.910Z,99409.59
2023-04-30T01:02:09.993Z,99409.00
2023-04-30T01:04:37.549Z,99408.34
2023-04-30T01:07:05.594Z,99411.22
2023-04-30T01:09:33.457Z,99405.56
2023-04-30T01:12:26.403Z,99402.91
2023-04-30T01:15:06.363Z,99412.84
2023-04-30T01:17:52.900Z,99411.00
2023-04-30T01:20:20.715Z,99420.00
2023-04-30T01:23:10.110Z,99419.38
2023-04-30T01:25:40.671Z,99419.41
2023-04-30T01:28:19.500Z,99410.47
2023-04-30T01:30:47.482Z,99408.66
2023-04-30T01:33:14.907Z,99407.75
2023-04-30T01:36:04.131Z,99418.19
2023-04-30T01:38:37.662Z,99414.25
2023-04-30T01:41:26.228Z,99416.78
2023-04-30T01:44:10.808Z,99406.78
2023-04-30T01:46:38.773Z,99417.62
2023-04-30T01:49:51.164Z,99419.66
2023-04-30T01:52:23.222Z,99415.13
2023-04-30T01:55:14.310Z,99416.31
2023-04-30T01:57:46.555Z,99421.09
2023-04-30T02:00:15.065Z,99424.03
2023-04-30T02:02:42.898Z,99423.75
2023-04-30T02:05:10.445Z,99420.34
2023-04-30T02:07:40.841Z,99426.59
2023-04-30T02:10:09.807Z,99428.72
2023-04-30T02:12:37.233Z,99418.50
2023-04-30T02:15:05.437Z,99425.97
2023-04-30T02:17:33.474Z,99420.66
2023-04-30T02:20:00.918Z,99419.38
2023-04-30T02:22:28.553Z,99425.12
2023-04-30T02:24:57.350Z,99422.41
2023-04-30T02:27:28.773Z,99421.06
2023-04-30T02:29:56.663Z,99422.91
2023-04-30T02:32:24.315Z,99420.69
2023-04-30T02:34:51.752Z,99426.56
2023-04-30T02:37:19.448Z,99427.69
2023-04-30T02:39:47.797Z,99426.69
2023-04-30T02:42:15.400Z,99426.50
2023-04-30T02:44:43.605Z,99429.59
2023-04-30T02:47:11.059Z,99435.09
2023-04-30T02:49:38.869Z,99427.63
2023-04-30T02:52:09.537Z,99432.72
2023-04-30T02:54:37.284Z,99434.03
2023-04-30T02:57:04.897Z,99443.56
2023-04-30T02:59:32.594Z,99443.63
2023-04-30T03:01:59.964Z,99450.66
2023-04-30T03:04:27.391Z,99446.84
2023-04-30T03:06:55.075Z,99444.94
2023-04-30T03:09:22.555Z,99450.75
2023-04-30T03:11:50.008Z,99447.28
2023-04-30T03:14:17.976Z,99444.72
2023-04-30T03:16:45.458Z,99442.81
2023-04-30T03:19:13.055Z,99446.13
2023-04-30T03:21:41.254Z,99443.22
2023-04-30T03:24:08.672Z,99437.19
2023-04-30T03:26:36.090Z,99440.06
2023-04-30T03:29:03.727Z,99440.72
2023-04-30T03:31:31.368Z,99453.28
2023-04-30T03:33:58.861Z,99443.34
2023-04-30T03:36:27.412Z,99447.88
2023-04-30T03:38:54.805Z,99444.87
2023-04-30T03:41:23.268Z,99448.25
2023-04-30T03:43:51.064Z,99443.34
2023-04-30T03:46:18.852Z,99453.25
2023-04-30T03:48:46.762Z,99450.56
2023-04-30T03:51:14.766Z,99456.28
2023-04-30T03:53:42.136Z,99452.59
2023-04-30T03:56:09.582Z,99446.44
2023-04-30T03:58:37.458Z,99443.03
2023-04-30T04:01:04.956Z,99450.59
2023-04-30T04:03:35.478Z,99458.88
2023-04-30T04:06:02.968Z,99460.13
2023-04-30T04:08:30.703Z,99472.53
2023-04-30T04:10:58.428Z,99471.44
2023-04-30T04:13:26.032Z,99474.84
2023-04-30T04:15:53.455Z,99481.41
2023-04-30T04:18:21.625Z,99482.28
2023-04-30T04:20:49.017Z,99476.91
2023-04-30T04:23:16.555Z,99484.03
2023-04-30T04:25:44.422Z,99485.13
2023-04-30T04:28:12.510Z,99487.09
2023-04-30T04:30:40.955Z,99494.59
2023-04-30T04:33:09.294Z,99496.09
2023-04-30T04:35:37.156Z,99499.00
2023-04-30T04:38:04.758Z,99492.78
2023-04-30T04:40:32.931Z,99504.09
2023-04-30T04:43:00.357Z,99511.69
2023-04-30T04:45:27.790Z,99507.78
2023-04-30T04:47:55.789Z,99507.84
2023-04-30T04:50:23.230Z,99508.41
2023-04-30T04:52:51.037Z,99507.19
2023-04-30T04:55:19.114Z,99512.41
2023-04-30T04:57:46.680Z,99515.94
2023-04-30T05:00:14.452Z,99518.25
2023-04-30T05:02:42.526Z,99511.00
2023-04-30T05:05:11.052Z,99519.63
2023-04-30T05:07:38.579Z,99523.00
2023-04-30T05:10:07.545Z,99530.66
2023-04-30T05:12:34.963Z,99537.44
2023-04-30T05:15:02.808Z,99531.38
2023-04-30T05:17:30.896Z,99531.78
2023-04-30T05:19:58.314Z,99543.66
2023-04-30T05:22:25.802Z,99545.53
2023-04-30T05:24:53.602Z,99551.00
2023-04-30T05:27:21.114Z,99545.53
2023-04-30T05:29:48.500Z,99555.47
2023-04-30T05:32:16.388Z,99547.81
2023-04-30T05:34:43.891Z,99551.72
2023-04-30T05:37:12.721Z,99557.50
2023-04-30T05:39:40.791Z,99558.81
2023-04-30T05:42:08.250Z,99553.00
2023-04-30T05:44:35.901Z,99560.50
2023-04-30T05:47:03.626Z,99553.47
2023-04-30T05:49:31.455Z,99563.75
2023-04-30T05:51:59.544Z,99569.63
2023-04-30T05:54:27.212Z,99562.19
2023-04-30T05:56:54.558Z,99557.84
2023-04-30T05:59:21.956Z,99565.94
2023-04-30T06:01:49.798Z,99552.91
2023-04-30T06:04:17.651Z,99567.44
2023-04-30T06:06:45.168Z,99560.84
2023-04-30T06:09:12.646Z,99556.47
2023-04-30T06:11:42.378Z,99575.31
2023-04-30T06:14:10.497Z,99562.19
2023-04-30T06:16:38.418Z,99571.81
2023-04-30T06:19:06.216Z,99566.09
2023-04-30T06:21:33.600Z,99564.16
2023-04-30T06:24:00.944Z,99561.84
2023-04-30T06:26:28.641Z,99565.63
2023-04-30T06:28:56.084Z,99566.91
2023-04-30T06:31:23.639Z,99572.72
2023-04-30T06:33:51.467Z,99570.00
2023-04-30T06:36:19.649Z,99558.31
2023-04-30T06:38:47.480Z,99562.28
2023-04-30T06:41:16.290Z,99559.03
2023-04-30T06:43:44.062Z,99579.03
2023-04-30T06:46:11.696Z,99561.94
2023-04-30T06:48:39.533Z,99564.16
2023-04-30T06:51:08.167Z,99572.75
2023-04-30T06:53:37.389Z,99570.91
2023-04-30T06:56:05.325Z,99565.84
2023-04-30T06:58:32.708Z,99573.63
2023-04-30T07:01:01.076Z,99570.38
2023-04-30T07:03:29.362Z,99574.37
2023-04-30T07:05:57.544Z,99570.12
2023-04-30T07:08:24.946Z,99573.87
2023-04-30T07:10:52.638Z,99574.94
2023-04-30T07:13:20.035Z,99579.00
2023-04-30T07:15:47.526Z,99574.56
2023-04-30T07:18:16.232Z,99568.47
2023-04-30T07:20:43.644Z,99568.81
2023-04-30T07:23:11.091Z,99574.59
2023-04-30T07:25:39.222Z,99570.75
2023-04-30T07:28:06.604Z,99575.28
2023-04-30T07:30:34.210Z,99571.44
2023-04-30T07:33:02.024Z,99574.87
2023-04-30T07:35:29.460Z,99571.59
2023-04-30T07:37:56.846Z,99570.59
2023-04-30T07:40:34.737Z,99571.44
2023-04-30T07:43:04.590Z,99568.88
2023-04-30T07:45:34.004Z,99574.03
2023-04-30T07:48:01.749Z,99578.41
2023-04-30T07:50:33.781Z,99576.75
2023-04-30T07:53:02.014Z,99577.44
2023-04-30T07:55:29.374Z,99579.97
2023-04-30T07:57:56.755Z,99576.78
2023-04-30T08:00:26.384Z,99578.09
2023-04-30T08:02:54.063Z,99583.72
2023-04-30T08:05:21.678Z,99574.72
2023-04-30T08:07:49.056Z,99569.66
2023-04-30T08:10:17.171Z,99572.09
2023-04-30T08:12:44.952Z,99570.78
2023-04-30T08:15:12.399Z,99565.19
2023-04-30T08:17:40.123Z,99578.47
2023-04-30T08:20:08.460Z,99570.31
2023-04-30T08:22:36.400Z,99572.31
2023-04-30T08:25:04.316Z,99572.06
2023-04-30T08:27:32.275Z,99572.88
2023-04-30T08:29:59.731Z,99571.28
2023-04-30T08:32:28.322Z,99564.97
2023-04-30T08:34:55.936Z,99563.66
2023-04-30T08:37:23.588Z,99567.78
2023-04-30T08:39:51.280Z,99561.91
2023-04-30T08:42:19.190Z,99560.50
2023-04-30T08:44:47.181Z,99568.06
2023-04-30T08:47:15.207Z,99559.59
2023-04-30T08:49:43.746Z,99562.66
2023-04-30T08:52:11.187Z,99561.44
2023-04-30T08:54:38.931Z,99565.56
2023-04-30T08:57:06.507Z,99567.28
2023-04-30T08:59:33.930Z,99553.56
2023-04-30T09:02:02.265Z,99556.47
2023-04-30T09:04:29.859Z,99559.87
2023-04-30T09:06:59.359Z,99559.13
2023-04-30T09:09:30.853Z,99556.84
2023-04-30T09:12:19.130Z,99558.84
2023-04-30T09:15:03.345Z,99555.31
2023-04-30T09:17:32.964Z,99566.53
2023-04-30T09:20:13.768Z,99560.69
2023-04-30T09:22:42.348Z,99562.38
2023-04-30T09:25:11.286Z,99562.12
2023-04-30T09:27:38.727Z,99551.87
2023-04-30T09:30:07.861Z,99553.50
2023-04-30T09:32:35.654Z,99542.69
2023-04-30T09:35:03.313Z,99555.50
2023-04-30T09:37:38.148Z,99548.97
2023-04-30T09:40:06.083Z,99545.13
2023-04-30T09:42:33.425Z,99545.25
2023-04-30T09:45:00.881Z,99542.22
2023-04-30T09:47:31.792Z,99538.91
2023-04-30T09:50:00.520Z,99542.09
2023-04-30T09:52:28.388Z,99539.06
2023-04-30T09:54:55.893Z,99539.28
2023-04-30T09:57:24.285Z,99534.38
2023-04-30T09:59:53.470Z,99540.22
2023-04-30T10:02:23.890Z,99534.97
2023-04-30T10:04:56.404Z,99535.81
2023-04-30T10:07:26.294Z,99535.00
2023-04-30T10:10:06.979Z,99535.37
2023-04-30T10:12:51.115Z,99530.22
2023-04-30T10:15:24.960Z,99534.38
2023-04-30T10:18:03.725Z,99534.81
2023-04-30T10:20:32.647Z,99527.22
2023-04-30T10:23:00.261Z,99518.97
2023-04-30T10:25:28.214Z,99520.84
2023-04-30T10:27:56.334Z,99526.44
2023-04-30T10:30:23.962Z,99517.53
2023-04-30T10:32:56.276Z,99524.94
2023-04-30T10:35:28.977Z,99527.91
2023-04-30T10:38:25.474Z,99520.19
2023-04-30T10:40:58.186Z,99516.25
2023-04-30T10:43:26.514Z,99527.63
2023-04-30T10:45:54.199Z,99517.88
2023-04-30T10:48:26.776Z,99522.84
2023-04-30T10:51:00.907Z,99513.47
2023-04-30T10:53:31.991Z,99520.75
2023-04-30T10:56:09.537Z,99519.56
2023-04-30T10:58:40.750Z,99519.50
2023-04-30T11:01:12.057Z,99517.88
2023-04-30T11:04:06.654Z,99520.31
2023-04-30T11:06:52.584Z,99502.69
2023-04-30T11:09:40.075Z,99494.62
2023-04-30T11:12:22.040Z,99505.59
2023-04-30T11:14:50.212Z,99499.13
2023-04-30T11:17:24.918Z,99503.97
2023-04-30T11:19:53.916Z,99504.94
2023-04-30T11:22:23.958Z,99505.81
2023-04-30T11:24:55.290Z,99514.84
2023-04-30T11:27:27.669Z,99518.22
2023-04-30T11:29:56.388Z,99516.31
2023-04-30T11:32:27.584Z,99513.37
2023-04-30T11:34:55.102Z,99514.72
2023-04-30T11:37:30.943Z,99506.91
2023-04-30T11:40:01.572Z,99508.16
2023-04-30T11:42:31.275Z,99517.44
2023-04-30T11:45:10.077Z,99519.44
2023-04-30T11:47:43.516Z,99503.81
2023-04-30T11:50:13.331Z,99508.50
2023-04-30T11:52:41.923Z,99510.72
2023-04-30T11:55:17.373Z,99522.06
2023-04-30T11:57:46.901Z,99512.06
2023-04-30T12:00:22.546Z,99510.88
2023-04-30T12:02:50.414Z,99505.00
2023-04-30T12:05:20.264Z,99513.22
2023-04-30T12:07:56.032Z,99510.47
2023-04-30T12:10:24.849Z,99518.91
2023-04-30T12:12:53.309Z,99513.78
2023-04-30T12:15:26.353Z,99516.09
2023-04-30T12:17:55.966Z,99513.41
2023-04-30T12:20:24.930Z,99508.50
2023-04-30T12:22:52.621Z,99508.34
2023-04-30T12:25:22.217Z,99502.25
2023-04-30T12:27:51.512Z,99508.19
2023-04-30T12:30:25.371Z,99512.00
2023-04-30T12:32:54.769Z,99502.44
2023-04-30T12:35:23.516Z,99496.94
2023-04-30T12:37:52.563Z,99487.53
2023-04-30T12:40:21.787Z,99484.44
2023-04-30T12:42:49.226Z,99485.28
2023-04-30T12:45:46.619Z,99477.47
2023-04-30T12:48:15.725Z,99484.75
2023-04-30T12:50:48.047Z,99477.22
2023-04-30T12:53:15.803Z,99484.81
2023-04-30T12:55:43.197Z,99485.69
2023-04-30T12:58:13.585Z,99473.59
2023-04-30T13:00:51.645Z,99466.97
2023-04-30T13:03:21.100Z,99463.81
2023-04-30T13:05:51.041Z,99467.37
2023-04-30T13:08:19.550Z,99472.72
2023-04-30T13:10:47.900Z,99471.47
2023-04-30T13:13:16.777Z,99477.50
2023-04-30T13:15:44.245Z,99464.50
2023-04-30T13:18:12.147Z,99465.81
2023-04-30T13:20:39.899Z,99450.16
2023-04-30T13:23:07.300Z,99462.06
2023-04-30T13:25:35.514Z,99452.34
2023-04-30T13:28:03.975Z,99446.94
2023-04-30T13:30:31.636Z,99455.66
2023-04-30T13:32:59.371Z,99446.34
2023-04-30T13:35:27.312Z,99443.69
2023-04-30T13:37:54.825Z,99446.22
2023-04-30T13:40:22.232Z,99448.06
2023-04-30T13:42:49.917Z,99446.53
2023-04-30T13:45:17.521Z,99454.97
2023-04-30T13:47:45.249Z,99450.69
2023-04-30T13:50:13.232Z,99453.28
2023-04-30T13:52:40.690Z,99450.81
2023-04-30T13:55:09.020Z,99457.22
2023-04-30T13:57:36.805Z,99464.78
2023-04-30T14:00:05.496Z,99452.63
2023-04-30T14:02:35.404Z,99453.06
2023-04-30T14:05:06.613Z,99451.28
2023-04-30T14:07:35.038Z,99451.19
2023-04-30T14:10:02.916Z,99452.97
2023-04-30T14:12:30.793Z,99451.03
2023-04-30T14:14:58.440Z,99452.03
2023-04-30T14:17:30.219Z,99438.97
2023-04-30T14:19:57.959Z,99448.78
2023-04-30T14:22:26.029Z,99448.62
2023-04-30T14:24:53.804Z,99451.78
2023-04-30T14:27:21.951Z,99445.25
2023-04-30T14:29:49.699Z,99441.03
2023-04-30T14:32:17.245Z,99442.22
2023-04-30T14:34:44.834Z,99446.97
2023-04-30T14:37:13.131Z,99449.31
2023-04-30T14:39:40.625Z,99449.16
2023-04-30T14:42:08.873Z,99450.94
2023-04-30T14:44:40.134Z,99435.72
2023-04-30T14:47:07.875Z,99444.34
2023-04-30T14:49:35.645Z,99438.47
2023-04-30T14:52:03.415Z,99439.06
2023-04-30T14:54:30.820Z,99449.41
2023-04-30T14:56:58.447Z,99452.75
2023-04-30T14:59:26.185Z,99451.59
2023-04-30T15:01:53.933Z,99448.97
2023-04-30T15:04:21.545Z,99451.47
2023-04-30T15:06:49.324Z,99455.94
2023-04-30T15:09:16.850Z,99460.13
2023-04-30T15:11:44.274Z,99452.72
2023-04-30T15:14:12.105Z,99446.41
2023-04-30T15:16:40.141Z,99449.22
2023-04-30T15:19:07.670Z,99450.53
2023-04-30T15:21:36.095Z,99464.22
2023-04-30T15:24:03.625Z,99454.94
2023-04-30T15:26:31.324Z,99456.72
2023-04-30T15:28:59.006Z,99452.19
2023-04-30T15:31:26.886Z,99467.87
2023-04-30T15:33:54.384Z,99461.69
2023-04-30T15:36:23.359Z,99465.59
2023-04-30T15:38:50.915Z,99468.78
2023-04-30T15:41:18.525Z,99470.00
2023-04-30T15:43:46.264Z,99481.06
2023-04-30T15:46:14.008Z,99487.19
2023-04-30T15:48:41.486Z,99498.97
2023-04-30T15:51:09.207Z,99503.75
2023-04-30T15:53:37.058Z,99510.25
2023-04-30T15:56:04.709Z,99524.16
2023-04-30T15:58:32.504Z,99529.53
2023-04-30T16:01:00.263Z,99525.06
2023-04-30T16:03:28.310Z,99535.81
2023-04-30T16:05:56.016Z,99527.22
2023-04-30T16:08:23.482Z,99524.06
2023-04-30T16:10:51.208Z,99529.50
2023-04-30T16:13:18.703Z,99529.81
2023-04-30T16:15:47.540Z,99527.22
2023-04-30T16:18:15.265Z,99532.59
2023-04-30T16:20:43.235Z,99531.53
2023-04-30T16:23:10.630Z,99523.91
2023-04-30T16:25:38.637Z,99533.94
2023-04-30T16:28:06.006Z,99536.06
2023-04-30T16:30:34.039Z,99538.81
2023-04-30T16:33:01.745Z,99531.66
2023-04-30T16:35:29.583Z,99533.31
2023-04-30T16:37:57.048Z,99535.03
2023-04-30T16:40:24.819Z,99530.94
2023-04-30T16:42:52.396Z,99527.63
2023-04-30T16:45:19.875Z,99532.38
2023-04-30T16:47:48.523Z,99540.62
2023-04-30T16:50:16.288Z,99534.13
2023-04-30T16:52:43.681Z,99539.97
2023-04-30T16:55:11.467Z,99542.31
2023-04-30T16:57:38.977Z,99544.09
2023-04-30T17:00:08.724Z,99556.41
2023-04-30T17:02:38.066Z,99559.19
2023-04-30T17:05:06.218Z,99551.72
2023-04-30T17:07:33.634Z,99549.81
2023-04-30T17:10:01.266Z,99563.53
2023-04-30T17:12:28.712Z,99560.72
2023-04-30T17:14:56.691Z,99565.94
2023-04-30T17:17:24.510Z,99566.25
2023-04-30T17:19:51.945Z,99569.09
2023-04-30T17:22:20.234Z,99567.66
2023-04-30T17:24:48.030Z,99562.59
2023-04-30T17:27:15.850Z,99568.16
2023-04-30T17:29:43.222Z,99574.81
2023-04-30T17:32:11.245Z,99562.44
2023-04-30T17:34:38.638Z,99562.97
2023-04-30T17:37:08.740Z,99566.72
2023-04-30T17:39:36.568Z,99564.84
2023-04-30T17:42:04.778Z,99574.81
2023-04-30T17:44:33.669Z,99573.94
2023-04-30T17:47:01.776Z,99570.41
2023-04-30T17:49:30.199Z,99568.03
2023-04-30T17:51:59.213Z,99576.59
2023-04-30T17:54:29.108Z,99574.87
2023-04-30T17:56:57.028Z,99572.06
2023-04-30T17:59:28.383Z,99579.84
2023-04-30T18:01:56.535Z,99582.41
2023-04-30T18:04:25.700Z,99583.16
2023-04-30T18:06:53.212Z,99585.88
2023-04-30T18:09:20.658Z,99590.16
2023-04-30T18:11:48.371Z,99584.91
2023-04-30T18:14:16.399Z,99589.31
2023-04-30T18:16:44.066Z,99586.78
2023-04-30T18:19:12.033Z,99594.06
2023-04-30T18:21:39.742Z,99590.78
2023-04-30T18:24:07.143Z,99600.09
2023-04-30T18:26:34.864Z,99604.94
2023-04-30T18:29:02.397Z,99606.16
2023-04-30T18:31:30.660Z,99606.97
2023-04-30T18:33:58.374Z,99607.56
2023-04-30T18:36:25.829Z,99608.22
2023-04-30T18:38:53.212Z,99608.28
2023-04-30T18:41:21.173Z,99611.72
2023-04-30T18:43:48.997Z,99617.38
2023-04-30T18:46:16.666Z,99622.91
2023-04-30T18:48:44.472Z,99618.13
2023-04-30T18:51:11.937Z,99623.56
2023-04-30T18:53:39.575Z,99634.78
2023-04-30T18:56:07.456Z,99641.13
2023-04-30T18:58:34.881Z,99643.97
2023-04-30T19:01:02.322Z,99648.50
2023-04-30T19:03:30.928Z,99645.13
2023-04-30T19:05:58.720Z,99645.72
2023-04-30T19:08:26.427Z,99642.19
2023-04-30T19:10:55.896Z,99642.59
2023-04-30T19:13:23.715Z,99647.88
2023-04-30T19:15:52.943Z,99650.16
2023-04-30T19:18:21.212Z,99657.16
2023-04-30T19:20:57.242Z,99664.09
2023-04-30T19:23:25.221Z,99661.88
2023-04-30T19:25:52.693Z,99665.41
2023-04-30T19:28:20.327Z,99663.28
2023-04-30T19:30:52.070Z,99661.22
2023-04-30T19:33:21.211Z,99661.88
2023-04-30T19:35:50.174Z,99654.75
2023-04-30T19:38:17.770Z,99659.34
2023-04-30T19:40:49.731Z,99665.37
2023-04-30T19:43:18.510Z,99667.72
2023-04-30T19:45:53.699Z,99664.25
2023-04-30T19:48:22.438Z,99670.03
2023-04-30T19:50:51.450Z,99675.84
2023-04-30T19:53:20.242Z,99677.09
2023-04-30T19:55:48.291Z,99670.09
2023-04-30T19:58:15.759Z,99676.91
2023-04-30T20:00:45.226Z,99674.72
2023-04-30T20:03:14.826Z,99678.59
2023-04-30T20:05:43.754Z,99674.84
2023-04-30T20:08:11.430Z,99672.84
2023-04-30T20:10:41.022Z,99675.38
2023-04-30T20:13:09.325Z,99673.84
2023-04-30T20:15:37.022Z,99678.06
2023-04-30T20:18:06.064Z,99684.16
2023-04-30T20:20:33.711Z,99680.59
2023-04-30T20:23:16.575Z,99685.84
2023-04-30T20:25:45.855Z,99686.16
2023-04-30T20:28:14.863Z,99690.91
2023-04-30T20:30:43.231Z,99694.69
2023-04-30T20:33:12.345Z,99698.91
2023-04-30T20:35:41.558Z,99700.44
2023-04-30T20:38:09.424Z,99695.34
2023-04-30T20:40:40.126Z,99707.34
2023-04-30T20:43:09.488Z,99706.53
2023-04-30T20:45:37.528Z,99703.97
2023-04-30T20:48:06.810Z,99704.63
2023-04-30T20:50:34.780Z,99707.50
2023-04-30T20:53:02.949Z,99710.56
2023-04-30T20:55:30.373Z,99719.03
2023-04-30T20:57:57.840Z,99712.22
2023-04-30T21:00:25.774Z,99719.44
2023-04-30T21:02:54.096Z,99720.63
2023-04-30T21:05:21.595Z,99728.72
2023-04-30T21:07:49.282Z,99736.38
2023-04-30T21:10:16.716Z,99739.66
2023-04-30T21:12:44.174Z,99744.25
2023-04-30T21:15:12.226Z,99742.00
2023-04-30T21:17:39.743Z,99743.22
2023-04-30T21:20:07.978Z,99752.91
2023-04-30T21:22:35.679Z,99749.09
2023-04-30T21:25:03.421Z,99756.94
2023-04-30T21:27:30.828Z,99772.09
2023-04-30T21:29:58.704Z,99768.41
2023-04-30T21:32:26.323Z,99773.06
2023-04-30T21:34:53.747Z,99778.31
2023-04-30T21:37:21.600Z,99782.34
2023-04-30T21:39:48.971Z,99790.59
2023-04-30T21:42:16.316Z,99790.28
2023-04-30T21:44:44.429Z,99799.75
2023-04-30T21:47:11.930Z,99800.50
2023-04-30T21:49:39.350Z,99802.63
2023-04-30T21:52:08.413Z,99796.53
2023-04-30T21:54:35.829Z,99804.94
2023-04-30T21:57:03.773Z,99795.75
2023-04-30T21:59:33.938Z,99801.56
2023-04-30T22:02:07.256Z,99801.41
2023-04-30T22:04:38.363Z,99808.44
2023-04-30T22:07:05.841Z,99813.31
2023-04-30T22:09:33.262Z,99812.16
2023-04-30T22:12:04.423Z,99814.38
2023-04-30T22:14:31.909Z,99808.84
2023-04-30T22:16:59.260Z,99810.03
2023-04-30T22:19:27.090Z,99817.16
2023-04-30T22:21:55.016Z,99812.97
2023-04-30T22:24:22.655Z,99819.16
2023-04-30T22:26:50.476Z,99813.13
2023-04-30T22:29:17.957Z,99813.91
2023-04-30T22:31:46.030Z,99823.66
2023-04-30T22:34:15.554Z,99825.47
2023-04-30T22:36:43.946Z,99823.16
2023-04-30T22:39:11.900Z,99821.38
2023-04-30T22:41:39.600Z,99815.12
2023-04-30T22:44:07.002Z,99820.94
2023-04-30T22:46:36.723Z,99814.84
2023-04-30T22:49:04.588Z,99828.22
2023-04-30T22:51:32.181Z,99821.94
2023-04-30T22:53:59.911Z,99824.06
2023-04-30T22:56:27.548Z,99822.19
2023-04-30T22:58:54.934Z,99824.38
2023-04-30T23:01:22.405Z,99826.91
2023-04-30T23:03:50.177Z,99831.31
2023-04-30T23:06:17.649Z,99828.13
2023-04-30T23:08:45.699Z,99832.00
2023-04-30T23:11:13.347Z,99828.56
2023-04-30T23:13:40.713Z,99830.59
2023-04-30T23:16:10.301Z,99828.31
2023-04-30T23:18:38.073Z,99837.31
2023-04-30T23:21:06.974Z,99824.66
2023-04-30T23:23:34.430Z,99824.94
2023-04-30T23:26:02.114Z,99825.34
2023-04-30T23:28:29.560Z,99824.19
2023-04-30T23:30:59.734Z,99821.34
2023-04-30T23:33:27.602Z,99830.91
2023-04-30T23:35:55.129Z,99830.53
2023-04-30T23:38:22.554Z,99836.25
2023-04-30T23:40:50.294Z,99832.34
2023-04-30T23:43:17.677Z,99835.63
2023-04-30T23:45:45.029Z,99826.28
2023-04-30T23:48:12.681Z,99827.66
2023-04-30T23:50:40.082Z,99826.22
2023-04-30T23:53:07.851Z,99827.44
2023-04-30T23:55:35.499Z,99831.22
2023-04-30T23:58:02.881Z,99832.69
